This demonstration page uses our WeatherBlox Daily Observations layout. Learn more.

Left ArrowRight Arrow

34.74481, -87.66753

Hourly Observations for June 29, 2019

Temp ( °F °C ) Dew Point ( °F °C ) Humidity (%) Winds ( mph kmh ) Pressure ( in mb ) Visibility ( mi km ) Precip ( " mm )
12:56 am 00:56 Clear 68 20 67 19.4 96 96 Calm 28.33 959 10 16 0.00 0.00
1:56 am 01:56 Clear 68 20 66 18.9 93 93 Calm 28.41 962 10 16 0.00 0.00
2:56 am 02:56 Clear 67 19.4 66 18.9 97 97 E 3 6 28.36 961 10 16 0.00 0.00
3:56 am 03:56 Clear 67 19.4 65 18.3 93 93 Calm 28.34 960 10 16 0.00 0.00
4:56 am 04:56 Clear 66 18.9 65 18.3 96 96 Calm 28.36 960 8 13 0.00 0.00
5:56 am 05:56 Sunny with Mist and Fog 65 18.3 64 17.8 97 97 Calm 28.43 963 5 8 0.00 0.00
6:56 am 06:56 Sunny 70 21.1 67 19.4 90 90 ENE 3 6 28.43 963 10 16 0.00 0.00
7:56 am 07:56 Sunny 75 23.9 69 20.6 82 82 ESE 6 9 28.40 962 10 16 0.00 0.00
8:56 am 08:56 Sunny 78 25.6 69 20.6 74 74 ESE 5 7 28.38 961 10 16 0.00 0.00
9:56 am 09:56 Sunny 82 27.8 70 21.1 67 67 ENE 3 6 28.34 960 10 16 0.00 0.00
10:56 am 10:56 Sunny 83 28.3 71 21.7 67 67 SE 6 9 28.34 960 10 16 0.00 0.00
12:56 pm 12:56 Hazy 86 30 70 21.1 59 59 VRB 6 9 28.32 959 6 10 0.00 0.00
1:56 pm 13:56 Mostly Sunny 87 30.6 69 20.6 55 55 VRB 3 6 28.27 957 10 16 0.00 0.00
2:56 pm 14:56 Partly Cloudy 88 31.1 70 21.1 55 55 VRB 3 6 28.25 957 10 16 0.00 0.00
3:56 pm 15:56 Mostly Cloudy 86 30 70 21.1 59 59 NE 8 13 28.25 957 10 16 0.00 0.00
4:20 pm 16:20 Cloudy with Thunderstorms 79 26 72 22 79 79 VRB 6 9 30.09 1019 9 14 0.06 1.52
4:56 pm 16:56 Cloudy with Strong Thunderstorms 72 22.2 69 20.6 91 91 SSE 8 13 28.39 961 6 10 0.15 3.81
5:56 pm 17:56 Mostly Cloudy with Light Rain 73 22.8 71 21.7 94 94 Calm 28.38 961 10 16 0.05 1.27
6:56 pm 18:56 Sunny 72 22.2 71 21.7 97 97 Calm 28.35 960 10 16 0.00 0.03
7:56 pm 19:56 Sunny with Mist and Fog 72 22.2 71 21.7 97 97 Calm 28.31 959 4 6 0.00 0.00
8:56 pm 20:56 Clear 72 22.2 70 21.1 94 94 Calm 28.30 959 10 16 0.00 0.00
9:56 pm 21:56 Clear with Mist and Fog 71 21.7 70 21.1 96 96 Calm 28.30 958 6 10 0.00 0.00
10:56 pm 22:56 Clear with Mist and Fog 70 21.1 69 20.6 97 97 Calm 28.30 958 4 6 0.00 0.00
11:10 pm 23:10 Clear with Mist and Fog 70 21 70 21 100 100 Calm 30.12 1020 2 3 0.00 0.00
11:19 pm 23:19 Clear with Mist and Fog 70 21 70 21 100 100 Calm 30.12 1020 3 5 0.00 0.00
11:56 pm 23:56 Clear with Mist and Fog 69 20.6 68 20 96 96 Calm 28.31 959 3 5 0.00 0.00

Powered by AerisWeather